sensor_id;sensor_type;location;lat;lon;timestamp;temperature;humidity
6954;DHT22;3516;47.980;8.808;2022-10-03T00:02:30;21.90;99.90
6954;DHT22;3516;47.980;8.808;2022-10-03T00:05:04;21.90;99.90
6954;DHT22;3516;47.980;8.808;2022-10-03T00:07:57;21.90;99.90
6954;DHT22;3516;47.980;8.808;2022-10-03T00:10:30;22.00;99.90
6954;DHT22;3516;47.980;8.808;2022-10-03T00:13:02;22.00;99.90
6954;DHT22;3516;47.980;8.808;2022-10-03T00:15:33;22.00;99.90
6954;DHT22;3516;47.980;8.808;2022-10-03T00:18:04;22.00;99.90
6954;DHT22;3516;47.980;8.808;2022-10-03T00:20:45;21.90;99.90
6954;DHT22;3516;47.980;8.808;2022-10-03T00:23:15;22.00;99.90
6954;DHT22;3516;47.980;8.808;2022-10-03T00:25:47;22.00;99.90
6954;DHT22;3516;47.980;8.808;2022-10-03T05:20:53;21.80;99.90
6954;DHT22;3516;47.980;8.808;2022-10-03T05:23:23;21.80;99.90
6954;DHT22;3516;47.980;8.808;2022-10-03T05:25:57;21.80;99.90
6954;DHT22;3516;47.980;8.808;2022-10-03T05:28:29;21.80;99.90
6954;DHT22;3516;47.980;8.808;2022-10-03T05:31:01;21.80;99.90
6954;DHT22;3516;47.980;8.808;2022-10-03T05:33:36;21.90;99.90
6954;DHT22;3516;47.980;8.808;2022-10-03T05:38:58;21.90;99.90
6954;DHT22;3516;47.980;8.808;2022-10-03T05:41:28;21.90;99.90
6954;DHT22;3516;47.980;8.808;2022-10-03T05:44:00;21.90;99.90
6954;DHT22;3516;47.980;8.808;2022-10-03T05:49:23;21.90;99.90
6954;DHT22;3516;47.980;8.808;2022-10-03T05:51:58;21.90;99.90
6954;DHT22;3516;47.980;8.808;2022-10-03T06:03:00;21.90;99.90
6954;DHT22;3516;47.980;8.808;2022-10-03T06:05:34;21.90;99.90
6954;DHT22;3516;47.980;8.808;2022-10-03T06:08:21;21.90;99.90
6954;DHT22;3516;47.980;8.808;2022-10-03T06:10:53;21.90;99.90
6954;DHT22;3516;47.980;8.808;2022-10-03T06:13:26;21.90;99.90
6954;DHT22;3516;47.980;8.808;2022-10-03T06:15:58;21.90;99.90
6954;DHT22;3516;47.980;8.808;2022-10-03T06:18:35;21.90;99.90
6954;DHT22;3516;47.980;8.808;2022-10-03T06:21:11;21.90;99.90
6954;DHT22;3516;47.980;8.808;2022-10-03T06:26:44;21.80;99.90
6954;DHT22;3516;47.980;8.808;2022-10-03T06:29:25;21.90;99.90
6954;DHT22;3516;47.980;8.808;2022-10-03T06:32:01;21.90;99.90
6954;DHT22;3516;47.980;8.808;2022-10-03T06:37:28;21.90;99.90
6954;DHT22;3516;47.980;8.808;2022-10-03T06:40:18;21.80;99.90
6954;DHT22;3516;47.980;8.808;2022-10-03T06:42:53;21.80;99.90
6954;DHT22;3516;47.980;8.808;2022-10-03T06:48:08;21.80;99.90
6954;DHT22;3516;47.980;8.808;2022-10-03T06:50:45;21.70;99.90
6954;DHT22;3516;47.980;8.808;2022-10-03T06:53:22;21.70;99.90
6954;DHT22;3516;47.980;8.808;2022-10-03T06:55:59;21.70;99.90
6954;DHT22;3516;47.980;8.808;2022-10-03T06:58:36;21.70;99.90
6954;DHT22;3516;47.980;8.808;2022-10-03T07:01:13;21.70;99.90
6954;DHT22;3516;47.980;8.808;2022-10-03T07:06:40;21.60;99.90
6954;DHT22;3516;47.980;8.808;2022-10-03T07:14:48;21.60;99.90
6954;DHT22;3516;47.980;8.808;2022-10-03T07:17:26;21.70;99.90
6954;DHT22;3516;47.980;8.808;2022-10-03T07:20:14;21.70;99.90
6954;DHT22;3516;47.980;8.808;2022-10-03T07:25:43;21.70;99.90
6954;DHT22;3516;47.980;8.808;2022-10-03T07:28:22;21.70;99.90
6954;DHT22;3516;47.980;8.808;2022-10-03T07:30:57;21.70;99.90
6954;DHT22;3516;47.980;8.808;2022-10-03T07:33:31;21.70;99.90
6954;DHT22;3516;47.980;8.808;2022-10-03T07:36:20;21.70;99.70
6954;DHT22;3516;47.980;8.808;2022-10-03T07:41:55;21.70;99.10
6954;DHT22;3516;47.980;8.808;2022-10-03T07:47:28;21.70;98.50
6954;DHT22;3516;47.980;8.808;2022-10-03T07:52:47;21.70;97.90
6954;DHT22;3516;47.980;8.808;2022-10-03T07:55:26;21.70;97.60
6954;DHT22;3516;47.980;8.808;2022-10-03T08:00:53;21.70;97.10
6954;DHT22;3516;47.980;8.808;2022-10-03T08:06:24;21.70;96.60
6954;DHT22;3516;47.980;8.808;2022-10-03T08:08:54;21.70;96.30
6954;DHT22;3516;47.980;8.808;2022-10-03T08:11:32;21.70;96.10
6954;DHT22;3516;47.980;8.808;2022-10-03T08:14:07;21.70;96.10
6954;DHT22;3516;47.980;8.808;2022-10-03T08:19:27;21.70;95.70
6954;DHT22;3516;47.980;8.808;2022-10-03T08:22:00;21.70;95.50
6954;DHT22;3516;47.980;8.808;2022-10-03T08:24:34;21.70;95.30
6954;DHT22;3516;47.980;8.808;2022-10-03T08:27:16;21.70;95.10
6954;DHT22;3516;47.980;8.808;2022-10-03T08:32:49;21.80;94.80
6954;DHT22;3516;47.980;8.808;2022-10-03T08:35:22;21.70;94.90
6954;DHT22;3516;47.980;8.808;2022-10-03T08:40:42;21.80;94.20
6954;DHT22;3516;47.980;8.808;2022-10-03T08:46:04;21.70;93.70
6954;DHT22;3516;47.980;8.808;2022-10-03T08:54:07;21.70;93.20
6954;DHT22;3516;47.980;8.808;2022-10-03T08:56:45;21.70;93.00
6954;DHT22;3516;47.980;8.808;2022-10-03T08:59:17;21.70;92.80
6954;DHT22;3516;47.980;8.808;2022-10-03T09:01:51;21.70;92.70
6954;DHT22;3516;47.980;8.808;2022-10-03T09:07:30;21.70;92.50
6954;DHT22;3516;47.980;8.808;2022-10-03T09:13:01;21.70;92.20
6954;DHT22;3516;47.980;8.808;2022-10-03T09:15:33;21.70;92.10
6954;DHT22;3516;47.980;8.808;2022-10-03T09:18:17;21.70;92.00
6954;DHT22;3516;47.980;8.808;2022-10-03T13:52:56;21.40;66.70
6954;DHT22;3516;47.980;8.808;2022-10-03T13:55:27;21.40;66.90
6954;DHT22;3516;47.980;8.808;2022-10-03T13:58:09;21.50;67.10
6954;DHT22;3516;47.980;8.808;2022-10-03T14:00:43;21.50;67.10
6954;DHT22;3516;47.980;8.808;2022-10-03T14:03:15;21.50;67.10
6954;DHT22;3516;47.980;8.808;2022-10-03T14:06:03;21.50;67.10
6954;DHT22;3516;47.980;8.808;2022-10-03T14:08:38;21.50;67.20
6954;DHT22;3516;47.980;8.808;2022-10-03T14:11:13;21.50;67.20
6954;DHT22;3516;47.980;8.808;2022-10-03T14:13:59;21.60;67.40
6954;DHT22;3516;47.980;8.808;2022-10-03T14:16:30;21.60;67.50
6954;DHT22;3516;47.980;8.808;2022-10-03T14:18:59;21.60;67.60
6954;DHT22;3516;47.980;8.808;2022-10-03T14:21:31;21.60;67.70
6954;DHT22;3516;47.980;8.808;2022-10-03T14:24:04;21.70;68.10
6954;DHT22;3516;47.980;8.808;2022-10-03T14:26:36;21.70;68.50
6954;DHT22;3516;47.980;8.808;2022-10-03T14:29:05;21.80;69.10
6954;DHT22;3516;47.980;8.808;2022-10-03T14:31:37;21.80;69.50
6954;DHT22;3516;47.980;8.808;2022-10-03T14:34:07;21.80;69.70
6954;DHT22;3516;47.980;8.808;2022-10-03T14:36:38;21.90;69.90
6954;DHT22;3516;47.980;8.808;2022-10-03T14:42:06;21.90;70.90
6954;DHT22;3516;47.980;8.808;2022-10-03T14:44:35;22.00;71.50
6954;DHT22;3516;47.980;8.808;2022-10-03T14:47:06;22.00;72.10
6954;DHT22;3516;47.980;8.808;2022-10-03T14:49:33;22.00;72.60
6954;DHT22;3516;47.980;8.808;2022-10-03T14:52:01;22.10;73.40
6954;DHT22;3516;47.980;8.808;2022-10-03T14:54:29;22.10;73.90
6954;DHT22;3516;47.980;8.808;2022-10-03T14:57:20;22.10;74.50
6954;DHT22;3516;47.980;8.808;2022-10-03T14:59:51;22.10;75.20
6954;DHT22;3516;47.980;8.808;2022-10-03T15:02:24;22.20;76.10
6954;DHT22;3516;47.980;8.808;2022-10-03T15:04:51;22.20;76.10
6954;DHT22;3516;47.980;8.808;2022-10-03T15:07:23;22.20;76.70
6954;DHT22;3516;47.980;8.808;2022-10-03T15:09:57;22.20;77.10
6954;DHT22;3516;47.980;8.808;2022-10-03T15:12:24;22.20;77.60
6954;DHT22;3516;47.980;8.808;2022-10-03T15:14:55;22.20;78.00
6954;DHT22;3516;47.980;8.808;2022-10-03T15:17:23;22.20;78.40
6954;DHT22;3516;47.980;8.808;2022-10-03T15:19:52;22.20;78.60
6954;DHT22;3516;47.980;8.808;2022-10-03T15:22:27;22.20;78.90
6954;DHT22;3516;47.980;8.808;2022-10-03T15:24:56;22.10;79.10
6954;DHT22;3516;47.980;8.808;2022-10-03T15:27:23;22.10;79.30
6954;DHT22;3516;47.980;8.808;2022-10-03T15:29:54;22.10;79.50
6954;DHT22;3516;47.980;8.808;2022-10-03T15:32:23;22.10;79.60
6954;DHT22;3516;47.980;8.808;2022-10-03T15:34:53;22.10;79.90
6954;DHT22;3516;47.980;8.808;2022-10-03T15:37:22;22.10;80.00
6954;DHT22;3516;47.980;8.808;2022-10-03T15:39:50;22.10;80.10
6954;DHT22;3516;47.980;8.808;2022-10-03T15:42:19;22.10;80.30
6954;DHT22;3516;47.980;8.808;2022-10-03T15:44:48;22.00;80.30
6954;DHT22;3516;47.980;8.808;2022-10-03T15:47:19;22.00;80.40
6954;DHT22;3516;47.980;8.808;2022-10-03T15:49:47;22.00;80.50
6954;DHT22;3516;47.980;8.808;2022-10-03T15:52:16;22.00;80.70
6954;DHT22;3516;47.980;8.808;2022-10-03T15:54:45;22.00;81.30
6954;DHT22;3516;47.980;8.808;2022-10-03T15:57:16;22.10;81.80
6954;DHT22;3516;47.980;8.808;2022-10-03T15:59:44;22.10;81.70
6954;DHT22;3516;47.980;8.808;2022-10-03T16:02:15;22.10;81.70
6954;DHT22;3516;47.980;8.808;2022-10-03T16:04:44;22.10;82.20
6954;DHT22;3516;47.980;8.808;2022-10-03T16:07:15;22.10;82.60
6954;DHT22;3516;47.980;8.808;2022-10-03T16:09:49;22.10;83.00
6954;DHT22;3516;47.980;8.808;2022-10-03T16:12:28;22.10;83.40
6954;DHT22;3516;47.980;8.808;2022-10-03T16:15:05;22.10;83.70
6954;DHT22;3516;47.980;8.808;2022-10-03T16:17:38;22.10;84.00
6954;DHT22;3516;47.980;8.808;2022-10-03T16:20:12;22.10;84.30
6954;DHT22;3516;47.980;8.808;2022-10-03T16:22:42;22.10;84.70
6954;DHT22;3516;47.980;8.808;2022-10-03T16:25:12;22.10;85.00
6954;DHT22;3516;47.980;8.808;2022-10-03T16:27:43;22.10;85.30
6954;DHT22;3516;47.980;8.808;2022-10-03T16:30:14;22.10;85.60
6954;DHT22;3516;47.980;8.808;2022-10-03T16:32:44;22.10;85.90
6954;DHT22;3516;47.980;8.808;2022-10-03T16:35:22;22.10;86.10
6954;DHT22;3516;47.980;8.808;2022-10-03T16:37:53;22.00;86.40
6954;DHT22;3516;47.980;8.808;2022-10-03T16:40:20;22.00;86.70
6954;DHT22;3516;47.980;8.808;2022-10-03T16:42:49;22.00;87.00
6954;DHT22;3516;47.980;8.808;2022-10-03T16:45:19;22.00;87.30
6954;DHT22;3516;47.980;8.808;2022-10-03T16:47:46;22.00;87.30
6954;DHT22;3516;47.980;8.808;2022-10-03T16:50:36;22.00;87.30
6954;DHT22;3516;47.980;8.808;2022-10-03T16:53:06;22.00;87.90
6954;DHT22;3516;47.980;8.808;2022-10-03T16:55:36;22.00;88.20
6954;DHT22;3516;47.980;8.808;2022-10-03T16:58:09;22.00;88.40
6954;DHT22;3516;47.980;8.808;2022-10-03T17:00:40;22.00;88.70
6954;DHT22;3516;47.980;8.808;2022-10-03T17:03:15;22.00;89.00
6954;DHT22;3516;47.980;8.808;2022-10-03T17:05:44;22.00;89.30
6954;DHT22;3516;47.980;8.808;2022-10-03T17:08:12;22.00;89.50
6954;DHT22;3516;47.980;8.808;2022-10-03T17:10:40;22.00;89.70
6954;DHT22;3516;47.980;8.808;2022-10-03T17:13:10;22.00;90.00
6954;DHT22;3516;47.980;8.808;2022-10-03T17:15:39;22.00;90.10
6954;DHT22;3516;47.980;8.808;2022-10-03T17:18:13;22.00;90.20
6954;DHT22;3516;47.980;8.808;2022-10-03T17:20:42;22.00;90.30
6954;DHT22;3516;47.980;8.808;2022-10-03T17:23:18;22.00;90.40
6954;DHT22;3516;47.980;8.808;2022-10-03T17:25:48;22.00;90.50
6954;DHT22;3516;47.980;8.808;2022-10-03T17:28:19;22.00;90.60
6954;DHT22;3516;47.980;8.808;2022-10-03T17:30:51;22.00;90.70
6954;DHT22;3516;47.980;8.808;2022-10-03T17:33:21;22.00;90.80
6954;DHT22;3516;47.980;8.808;2022-10-03T17:36:00;22.00;90.90
6954;DHT22;3516;47.980;8.808;2022-10-03T17:38:35;22.00;91.00
6954;DHT22;3516;47.980;8.808;2022-10-03T17:41:11;22.00;91.10
6954;DHT22;3516;47.980;8.808;2022-10-03T17:43:40;22.00;91.30
6954;DHT22;3516;47.980;8.808;2022-10-03T17:46:12;22.00;91.30
6954;DHT22;3516;47.980;8.808;2022-10-03T17:48:43;22.00;91.60
6954;DHT22;3516;47.980;8.808;2022-10-03T17:51:22;22.00;91.30
6954;DHT22;3516;47.980;8.808;2022-10-03T17:53:52;21.90;91.40
6954;DHT22;3516;47.980;8.808;2022-10-03T17:56:20;22.00;91.60
6954;DHT22;3516;47.980;8.808;2022-10-03T17:58:48;21.90;91.60
6954;DHT22;3516;47.980;8.808;2022-10-03T18:01:16;22.00;92.10
6954;DHT22;3516;47.980;8.808;2022-10-03T18:03:45;22.00;91.90
6954;DHT22;3516;47.980;8.808;2022-10-03T18:09:05;22.00;92.10
6954;DHT22;3516;47.980;8.808;2022-10-03T18:11:33;21.90;92.10
6954;DHT22;3516;47.980;8.808;2022-10-03T18:14:04;21.90;92.10
6954;DHT22;3516;47.980;8.808;2022-10-03T18:16:35;21.90;92.20
6954;DHT22;3516;47.980;8.808;2022-10-03T18:19:08;21.90;92.20
6954;DHT22;3516;47.980;8.808;2022-10-03T18:21:41;21.90;92.30
6954;DHT22;3516;47.980;8.808;2022-10-03T18:24:23;21.90;92.30
6954;DHT22;3516;47.980;8.808;2022-10-03T18:26:56;21.90;92.40
6954;DHT22;3516;47.980;8.808;2022-10-03T18:29:28;21.90;92.40
6954;DHT22;3516;47.980;8.808;2022-10-03T18:31:57;21.90;92.50
6954;DHT22;3516;47.980;8.808;2022-10-03T18:34:25;21.90;92.50
6954;DHT22;3516;47.980;8.808;2022-10-03T18:36:54;21.90;92.60
6954;DHT22;3516;47.980;8.808;2022-10-03T18:39:24;21.90;92.70
6954;DHT22;3516;47.980;8.808;2022-10-03T18:41:51;21.90;92.70
6954;DHT22;3516;47.980;8.808;2022-10-03T18:44:19;21.90;92.80
6954;DHT22;3516;47.980;8.808;2022-10-03T18:46:48;21.90;92.80
6954;DHT22;3516;47.980;8.808;2022-10-03T18:49:18;21.90;92.90
6954;DHT22;3516;47.980;8.808;2022-10-03T18:51:48;21.90;93.30
6954;DHT22;3516;47.980;8.808;2022-10-03T18:54:22;21.90;93.00
6954;DHT22;3516;47.980;8.808;2022-10-03T18:56:59;21.90;93.10
6954;DHT22;3516;47.980;8.808;2022-10-03T18:59:29;21.90;93.10
6954;DHT22;3516;47.980;8.808;2022-10-03T19:01:59;21.90;93.20
6954;DHT22;3516;47.980;8.808;2022-10-03T19:04:33;21.90;93.20
6954;DHT22;3516;47.980;8.808;2022-10-03T19:07:01;21.90;93.30
6954;DHT22;3516;47.980;8.808;2022-10-03T19:09:32;21.90;93.40
6954;DHT22;3516;47.980;8.808;2022-10-03T19:12:00;21.90;93.40
6954;DHT22;3516;47.980;8.808;2022-10-03T19:14:35;21.90;93.50
6954;DHT22;3516;47.980;8.808;2022-10-03T19:17:17;21.80;93.50
6954;DHT22;3516;47.980;8.808;2022-10-03T19:19:50;21.80;93.60
6954;DHT22;3516;47.980;8.808;2022-10-03T19:22:20;21.80;93.70
6954;DHT22;3516;47.980;8.808;2022-10-03T19:24:48;21.80;93.70
6954;DHT22;3516;47.980;8.808;2022-10-03T19:27:16;21.80;93.70
6954;DHT22;3516;47.980;8.808;2022-10-03T19:29:44;21.80;93.70
6954;DHT22;3516;47.980;8.808;2022-10-03T19:32:16;21.80;93.70
6954;DHT22;3516;47.980;8.808;2022-10-03T19:34:44;21.80;93.70
6954;DHT22;3516;47.980;8.808;2022-10-03T19:39:55;21.80;93.90
6954;DHT22;3516;47.980;8.808;2022-10-03T19:42:24;21.80;94.00
6954;DHT22;3516;47.980;8.808;2022-10-03T19:44:54;21.80;94.10
6954;DHT22;3516;47.980;8.808;2022-10-03T19:47:21;21.80;94.10
6954;DHT22;3516;47.980;8.808;2022-10-03T19:49:52;21.80;94.20
6954;DHT22;3516;47.980;8.808;2022-10-03T19:52:23;21.80;94.30
6954;DHT22;3516;47.980;8.808;2022-10-03T19:54:51;21.80;94.40
6954;DHT22;3516;47.980;8.808;2022-10-03T19:57:22;21.80;94.50
6954;DHT22;3516;47.980;8.808;2022-10-03T19:59:50;21.80;94.50
6954;DHT22;3516;47.980;8.808;2022-10-03T20:02:21;21.80;94.60
6954;DHT22;3516;47.980;8.808;2022-10-03T20:04:49;21.80;94.60
6954;DHT22;3516;47.980;8.808;2022-10-03T20:07:16;21.80;94.70
6954;DHT22;3516;47.980;8.808;2022-10-03T20:09:53;21.80;94.80
6954;DHT22;3516;47.980;8.808;2022-10-03T20:12:23;21.80;94.90
6954;DHT22;3516;47.980;8.808;2022-10-03T20:14:50;21.80;94.90
6954;DHT22;3516;47.980;8.808;2022-10-03T20:17:18;21.80;95.00
6954;DHT22;3516;47.980;8.808;2022-10-03T20:19:46;21.80;95.00
6954;DHT22;3516;47.980;8.808;2022-10-03T20:22:19;21.80;95.10
6954;DHT22;3516;47.980;8.808;2022-10-03T20:24:46;21.80;95.10
6954;DHT22;3516;47.980;8.808;2022-10-03T20:27:18;21.80;95.20
6954;DHT22;3516;47.980;8.808;2022-10-03T20:29:49;21.80;95.20
6954;DHT22;3516;47.980;8.808;2022-10-03T20:32:20;21.80;95.20
6954;DHT22;3516;47.980;8.808;2022-10-03T20:34:49;21.80;95.60
6954;DHT22;3516;47.980;8.808;2022-10-03T20:37:20;21.80;95.30
6954;DHT22;3516;47.980;8.808;2022-10-03T20:39:51;21.80;95.40
6954;DHT22;3516;47.980;8.808;2022-10-03T20:42:21;21.80;95.40
6954;DHT22;3516;47.980;8.808;2022-10-03T20:44:59;21.80;95.40
6954;DHT22;3516;47.980;8.808;2022-10-03T20:47:39;21.80;95.50
6954;DHT22;3516;47.980;8.808;2022-10-03T20:50:11;21.80;95.60
6954;DHT22;3516;47.980;8.808;2022-10-03T20:52:40;21.80;95.70
6954;DHT22;3516;47.980;8.808;2022-10-03T20:55:14;21.80;95.70
6954;DHT22;3516;47.980;8.808;2022-10-03T20:57:44;21.80;95.80
6954;DHT22;3516;47.980;8.808;2022-10-03T21:00:17;21.80;95.80
6954;DHT22;3516;47.980;8.808;2022-10-03T21:02:45;21.80;95.80
6954;DHT22;3516;47.980;8.808;2022-10-03T21:05:16;21.80;95.90
6954;DHT22;3516;47.980;8.808;2022-10-03T21:07:46;21.80;95.90
6954;DHT22;3516;47.980;8.808;2022-10-03T21:10:19;21.80;95.90
6954;DHT22;3516;47.980;8.808;2022-10-03T21:12:48;21.80;96.00
6954;DHT22;3516;47.980;8.808;2022-10-03T21:15:23;21.80;96.40
6954;DHT22;3516;47.980;8.808;2022-10-03T21:17:52;21.80;96.10
6954;DHT22;3516;47.980;8.808;2022-10-03T21:20:20;21.80;96.10
6954;DHT22;3516;47.980;8.808;2022-10-03T21:22:49;21.80;96.10
6954;DHT22;3516;47.980;8.808;2022-10-03T21:25:18;21.70;96.10
6954;DHT22;3516;47.980;8.808;2022-10-03T21:27:46;21.80;96.20
6954;DHT22;3516;47.980;8.808;2022-10-03T21:30:15;21.80;96.20
6954;DHT22;3516;47.980;8.808;2022-10-03T21:32:57;21.80;96.20
6954;DHT22;3516;47.980;8.808;2022-10-03T21:35:25;21.80;96.20
6954;DHT22;3516;47.980;8.808;2022-10-03T21:38:02;21.80;96.20
6954;DHT22;3516;47.980;8.808;2022-10-03T21:40:34;21.80;96.20
6954;DHT22;3516;47.980;8.808;2022-10-03T21:43:05;21.80;96.20
6954;DHT22;3516;47.980;8.808;2022-10-03T21:45:39;21.80;96.20
6954;DHT22;3516;47.980;8.808;2022-10-03T21:48:09;21.80;96.20
6954;DHT22;3516;47.980;8.808;2022-10-03T21:50:41;21.80;96.20
6954;DHT22;3516;47.980;8.808;2022-10-03T21:53:17;21.80;96.20
6954;DHT22;3516;47.980;8.808;2022-10-03T21:55:49;21.80;96.20
6954;DHT22;3516;47.980;8.808;2022-10-03T21:58:25;21.80;96.20
